sensor_id;sensor_type;location;lat;lon;timestamp;P1;durP1;ratioP1;P2;durP2;ratioP2
80313;SDS011;69628;47.516;18.828;2023-11-19T00:00:59;10.07;;;4.88;;
80313;SDS011;69628;47.516;18.828;2023-11-19T00:02:00;8.60;;;4.07;;
80313;SDS011;69628;47.516;18.828;2023-11-19T00:03:00;6.57;;;3.65;;
80313;SDS011;69628;47.516;18.828;2023-11-19T00:04:01;8.15;;;4.10;;
80313;SDS011;69628;47.516;18.828;2023-11-19T00:05:04;6.82;;;4.15;;
80313;SDS011;69628;47.516;18.828;2023-11-19T00:06:08;6.53;;;3.97;;
80313;SDS011;69628;47.516;18.828;2023-11-19T00:07:11;6.38;;;3.47;;
80313;SDS011;69628;47.516;18.828;2023-11-19T00:08:13;11.35;;;4.65;;
80313;SDS011;69628;47.516;18.828;2023-11-19T00:09:13;6.72;;;4.15;;
80313;SDS011;69628;47.516;18.828;2023-11-19T00:10:16;10.30;;;5.50;;
80313;SDS011;69628;47.516;18.828;2023-11-19T00:11:21;7.90;;;4.55;;
80313;SDS011;69628;47.516;18.828;2023-11-19T00:12:21;7.22;;;4.38;;
80313;SDS011;69628;47.516;18.828;2023-11-19T00:13:22;5.68;;;3.00;;
80313;SDS011;69628;47.516;18.828;2023-11-19T00:14:23;6.70;;;4.13;;
80313;SDS011;69628;47.516;18.828;2023-11-19T00:15:25;8.13;;;4.10;;
80313;SDS011;69628;47.516;18.828;2023-11-19T00:16:26;7.32;;;3.55;;
80313;SDS011;69628;47.516;18.828;2023-11-19T00:17:26;8.65;;;4.38;;
80313;SDS011;69628;47.516;18.828;2023-11-19T00:18:27;9.52;;;3.85;;
80313;SDS011;69628;47.516;18.828;2023-11-19T00:19:27;5.72;;;3.70;;
80313;SDS011;69628;47.516;18.828;2023-11-19T00:20:27;7.95;;;4.10;;
80313;SDS011;69628;47.516;18.828;2023-11-19T00:21:29;7.28;;;3.08;;
80313;SDS011;69628;47.516;18.828;2023-11-19T00:22:29;5.60;;;3.25;;
80313;SDS011;69628;47.516;18.828;2023-11-19T00:23:29;6.05;;;3.72;;
80313;SDS011;69628;47.516;18.828;2023-11-19T00:24:30;7.47;;;3.83;;
80313;SDS011;69628;47.516;18.828;2023-11-19T00:25:30;7.80;;;3.80;;
80313;SDS011;69628;47.516;18.828;2023-11-19T00:26:31;8.80;;;3.78;;
80313;SDS011;69628;47.516;18.828;2023-11-19T00:27:31;5.93;;;3.22;;
80313;SDS011;69628;47.516;18.828;2023-11-19T00:28:32;5.57;;;3.38;;
80313;SDS011;69628;47.516;18.828;2023-11-19T00:29:33;7.00;;;4.05;;
80313;SDS011;69628;47.516;18.828;2023-11-19T00:30:33;5.35;;;3.20;;
80313;SDS011;69628;47.516;18.828;2023-11-19T00:31:34;7.63;;;4.40;;
80313;SDS011;69628;47.516;18.828;2023-11-19T00:32:35;3.97;;;2.65;;
80313;SDS011;69628;47.516;18.828;2023-11-19T00:33:38;5.22;;;2.53;;
80313;SDS011;69628;47.516;18.828;2023-11-19T00:34:39;5.07;;;3.08;;
80313;SDS011;69628;47.516;18.828;2023-11-19T00:35:39;3.97;;;2.90;;
80313;SDS011;69628;47.516;18.828;2023-11-19T00:36:40;8.52;;;4.13;;
80313;SDS011;69628;47.516;18.828;2023-11-19T00:37:40;4.97;;;3.00;;
80313;SDS011;69628;47.516;18.828;2023-11-19T00:38:42;7.35;;;3.30;;
80313;SDS011;69628;47.516;18.828;2023-11-19T00:39:43;4.57;;;2.55;;
80313;SDS011;69628;47.516;18.828;2023-11-19T00:40:46;5.95;;;3.33;;
80313;SDS011;69628;47.516;18.828;2023-11-19T00:41:46;4.75;;;3.15;;
80313;SDS011;69628;47.516;18.828;2023-11-19T00:42:47;4.85;;;3.00;;
80313;SDS011;69628;47.516;18.828;2023-11-19T00:43:47;5.40;;;3.28;;
80313;SDS011;69628;47.516;18.828;2023-11-19T00:44:48;10.50;;;4.32;;
80313;SDS011;69628;47.516;18.828;2023-11-19T00:45:48;4.80;;;3.35;;
80313;SDS011;69628;47.516;18.828;2023-11-19T00:46:50;9.73;;;4.03;;
80313;SDS011;69628;47.516;18.828;2023-11-19T00:47:51;5.03;;;3.53;;
80313;SDS011;69628;47.516;18.828;2023-11-19T00:48:51;6.78;;;3.38;;
80313;SDS011;69628;47.516;18.828;2023-11-19T00:49:51;7.82;;;3.17;;
80313;SDS011;69628;47.516;18.828;2023-11-19T00:50:52;6.18;;;3.08;;
80313;SDS011;69628;47.516;18.828;2023-11-19T00:51:52;5.32;;;3.30;;
80313;SDS011;69628;47.516;18.828;2023-11-19T00:52:53;5.65;;;3.60;;
80313;SDS011;69628;47.516;18.828;2023-11-19T00:53:53;7.53;;;3.58;;
80313;SDS011;69628;47.516;18.828;2023-11-19T00:54:53;9.10;;;3.72;;
80313;SDS011;69628;47.516;18.828;2023-11-19T00:55:54;8.18;;;4.03;;
80313;SDS011;69628;47.516;18.828;2023-11-19T00:56:54;4.93;;;3.72;;
80313;SDS011;69628;47.516;18.828;2023-11-19T00:57:55;8.73;;;4.20;;
80313;SDS011;69628;47.516;18.828;2023-11-19T00:58:56;9.60;;;4.43;;
80313;SDS011;69628;47.516;18.828;2023-11-19T00:59:56;19.85;;;5.57;;
80313;SDS011;69628;47.516;18.828;2023-11-19T01:00:57;13.02;;;5.95;;
80313;SDS011;69628;47.516;18.828;2023-11-19T01:01:58;13.10;;;5.60;;
80313;SDS011;69628;47.516;18.828;2023-11-19T01:03:03;13.00;;;5.25;;
80313;SDS011;69628;47.516;18.828;2023-11-19T01:04:03;10.55;;;4.50;;
80313;SDS011;69628;47.516;18.828;2023-11-19T01:05:03;15.98;;;5.95;;
80313;SDS011;69628;47.516;18.828;2023-11-19T01:06:04;12.73;;;4.88;;
80313;SDS011;69628;47.516;18.828;2023-11-19T01:07:05;9.13;;;4.22;;
80313;SDS011;69628;47.516;18.828;2023-11-19T01:08:06;8.75;;;4.20;;
80313;SDS011;69628;47.516;18.828;2023-11-19T01:09:06;7.65;;;4.38;;
80313;SDS011;69628;47.516;18.828;2023-11-19T01:10:08;9.82;;;5.28;;
80313;SDS011;69628;47.516;18.828;2023-11-19T01:11:09;12.30;;;4.07;;
80313;SDS011;69628;47.516;18.828;2023-11-19T01:12:20;5.45;;;3.47;;
80313;SDS011;69628;47.516;18.828;2023-11-19T01:13:21;6.68;;;3.33;;
80313;SDS011;69628;47.516;18.828;2023-11-19T01:14:21;7.00;;;4.03;;
80313;SDS011;69628;47.516;18.828;2023-11-19T01:15:21;7.38;;;3.47;;
80313;SDS011;69628;47.516;18.828;2023-11-19T01:16:22;10.52;;;3.83;;
80313;SDS011;69628;47.516;18.828;2023-11-19T01:17:23;8.65;;;4.63;;
80313;SDS011;69628;47.516;18.828;2023-11-19T01:18:23;9.18;;;4.47;;
80313;SDS011;69628;47.516;18.828;2023-11-19T01:19:24;7.40;;;4.00;;
80313;SDS011;69628;47.516;18.828;2023-11-19T01:20:24;9.93;;;4.35;;
80313;SDS011;69628;47.516;18.828;2023-11-19T01:21:24;11.48;;;4.53;;
80313;SDS011;69628;47.516;18.828;2023-11-19T01:22:25;5.78;;;3.72;;
80313;SDS011;69628;47.516;18.828;2023-11-19T01:23:25;6.22;;;3.63;;
80313;SDS011;69628;47.516;18.828;2023-11-19T01:24:26;5.82;;;4.07;;
80313;SDS011;69628;47.516;18.828;2023-11-19T01:25:28;7.95;;;3.92;;
80313;SDS011;69628;47.516;18.828;2023-11-19T01:26:29;8.75;;;3.90;;
80313;SDS011;69628;47.516;18.828;2023-11-19T01:27:29;11.65;;;4.78;;
80313;SDS011;69628;47.516;18.828;2023-11-19T01:28:29;8.98;;;3.97;;
80313;SDS011;69628;47.516;18.828;2023-11-19T01:29:30;12.93;;;5.20;;
80313;SDS011;69628;47.516;18.828;2023-11-19T01:30:31;11.18;;;4.88;;
80313;SDS011;69628;47.516;18.828;2023-11-19T01:31:31;9.23;;;3.20;;
80313;SDS011;69628;47.516;18.828;2023-11-19T01:32:33;10.13;;;4.47;;
80313;SDS011;69628;47.516;18.828;2023-11-19T01:33:37;13.43;;;4.43;;
80313;SDS011;69628;47.516;18.828;2023-11-19T01:34:37;13.38;;;4.57;;
80313;SDS011;69628;47.516;18.828;2023-11-19T01:35:38;7.97;;;4.47;;
80313;SDS011;69628;47.516;18.828;2023-11-19T01:36:38;7.38;;;4.47;;
80313;SDS011;69628;47.516;18.828;2023-11-19T01:37:39;12.73;;;4.80;;
80313;SDS011;69628;47.516;18.828;2023-11-19T01:38:39;7.78;;;4.10;;
80313;SDS011;69628;47.516;18.828;2023-11-19T01:39:40;14.15;;;4.22;;
80313;SDS011;69628;47.516;18.828;2023-11-19T01:40:40;6.18;;;4.03;;
80313;SDS011;69628;47.516;18.828;2023-11-19T01:41:40;6.70;;;3.65;;
80313;SDS011;69628;47.516;18.828;2023-11-19T01:42:41;8.00;;;4.22;;
80313;SDS011;69628;47.516;18.828;2023-11-19T01:43:41;12.98;;;5.05;;
80313;SDS011;69628;47.516;18.828;2023-11-19T01:44:41;8.85;;;4.53;;
80313;SDS011;69628;47.516;18.828;2023-11-19T01:45:42;10.10;;;4.60;;
80313;SDS011;69628;47.516;18.828;2023-11-19T01:46:43;6.45;;;4.18;;
80313;SDS011;69628;47.516;18.828;2023-11-19T01:47:44;19.02;;;4.65;;
80313;SDS011;69628;47.516;18.828;2023-11-19T01:48:45;5.53;;;3.42;;
80313;SDS011;69628;47.516;18.828;2023-11-19T01:49:45;5.13;;;3.55;;
80313;SDS011;69628;47.516;18.828;2023-11-19T01:50:46;8.18;;;4.15;;
80313;SDS011;69628;47.516;18.828;2023-11-19T01:51:46;9.80;;;3.92;;
80313;SDS011;69628;47.516;18.828;2023-11-19T01:52:47;6.55;;;3.45;;
80313;SDS011;69628;47.516;18.828;2023-11-19T01:53:48;14.15;;;6.25;;
80313;SDS011;69628;47.516;18.828;2023-11-19T01:54:49;10.40;;;5.55;;
80313;SDS011;69628;47.516;18.828;2023-11-19T01:55:50;6.70;;;4.57;;
80313;SDS011;69628;47.516;18.828;2023-11-19T01:56:52;8.55;;;4.45;;
80313;SDS011;69628;47.516;18.828;2023-11-19T01:57:58;14.30;;;5.25;;
80313;SDS011;69628;47.516;18.828;2023-11-19T01:58:59;9.55;;;4.43;;
80313;SDS011;69628;47.516;18.828;2023-11-19T02:00:00;5.72;;;4.10;;
80313;SDS011;69628;47.516;18.828;2023-11-19T02:01:00;8.43;;;4.55;;
80313;SDS011;69628;47.516;18.828;2023-11-19T02:02:03;7.57;;;4.38;;
80313;SDS011;69628;47.516;18.828;2023-11-19T02:03:05;10.13;;;4.80;;
80313;SDS011;69628;47.516;18.828;2023-11-19T02:04:08;10.43;;;5.35;;
80313;SDS011;69628;47.516;18.828;2023-11-19T02:05:10;6.85;;;3.92;;
80313;SDS011;69628;47.516;18.828;2023-11-19T02:06:11;6.53;;;3.30;;
80313;SDS011;69628;47.516;18.828;2023-11-19T02:07:11;9.35;;;3.70;;
80313;SDS011;69628;47.516;18.828;2023-11-19T02:08:12;8.70;;;4.50;;
80313;SDS011;69628;47.516;18.828;2023-11-19T02:09:13;11.48;;;4.30;;
80313;SDS011;69628;47.516;18.828;2023-11-19T02:10:14;10.45;;;4.28;;
80313;SDS011;69628;47.516;18.828;2023-11-19T02:11:16;8.00;;;4.00;;
80313;SDS011;69628;47.516;18.828;2023-11-19T02:12:17;8.02;;;4.13;;
80313;SDS011;69628;47.516;18.828;2023-11-19T02:13:18;8.55;;;4.28;;
80313;SDS011;69628;47.516;18.828;2023-11-19T02:14:18;7.50;;;4.10;;
80313;SDS011;69628;47.516;18.828;2023-11-19T02:15:23;8.93;;;3.45;;
80313;SDS011;69628;47.516;18.828;2023-11-19T02:16:24;6.30;;;3.47;;
80313;SDS011;69628;47.516;18.828;2023-11-19T02:17:26;5.43;;;3.40;;
80313;SDS011;69628;47.516;18.828;2023-11-19T02:18:28;9.43;;;4.30;;
80313;SDS011;69628;47.516;18.828;2023-11-19T02:19:28;5.22;;;3.38;;
80313;SDS011;69628;47.516;18.828;2023-11-19T02:20:29;5.50;;;3.15;;
80313;SDS011;69628;47.516;18.828;2023-11-19T02:21:29;9.43;;;3.97;;
80313;SDS011;69628;47.516;18.828;2023-11-19T02:22:29;8.30;;;3.63;;
80313;SDS011;69628;47.516;18.828;2023-11-19T02:23:30;5.03;;;3.60;;
80313;SDS011;69628;47.516;18.828;2023-11-19T02:24:30;5.82;;;3.70;;
80313;SDS011;69628;47.516;18.828;2023-11-19T02:25:31;7.03;;;3.40;;
80313;SDS011;69628;47.516;18.828;2023-11-19T02:28:02;5.97;;;3.40;;
80313;SDS011;69628;47.516;18.828;2023-11-19T02:29:04;6.35;;;3.38;;
80313;SDS011;69628;47.516;18.828;2023-11-19T02:30:06;7.15;;;3.97;;
80313;SDS011;69628;47.516;18.828;2023-11-19T02:31:08;7.57;;;4.55;;
80313;SDS011;69628;47.516;18.828;2023-11-19T02:32:09;16.00;;;4.45;;
80313;SDS011;69628;47.516;18.828;2023-11-19T02:33:09;12.43;;;4.60;;
80313;SDS011;69628;47.516;18.828;2023-11-19T02:34:10;7.53;;;4.07;;
80313;SDS011;69628;47.516;18.828;2023-11-19T02:35:12;15.60;;;3.63;;
80313;SDS011;69628;47.516;18.828;2023-11-19T02:36:12;8.60;;;4.60;;
80313;SDS011;69628;47.516;18.828;2023-11-19T02:37:13;6.63;;;4.18;;
80313;SDS011;69628;47.516;18.828;2023-11-19T02:38:14;11.82;;;4.82;;
80313;SDS011;69628;47.516;18.828;2023-11-19T02:39:15;6.07;;;3.60;;
80313;SDS011;69628;47.516;18.828;2023-11-19T02:40:21;7.80;;;4.10;;
80313;SDS011;69628;47.516;18.828;2023-11-19T02:41:22;12.20;;;6.60;;
80313;SDS011;69628;47.516;18.828;2023-11-19T02:42:23;9.27;;;5.13;;
80313;SDS011;69628;47.516;18.828;2023-11-19T02:43:23;10.30;;;5.20;;
80313;SDS011;69628;47.516;18.828;2023-11-19T02:44:24;8.07;;;4.30;;
80313;SDS011;69628;47.516;18.828;2023-11-19T02:45:24;12.50;;;4.68;;
80313;SDS011;69628;47.516;18.828;2023-11-19T02:46:25;9.73;;;4.75;;
80313;SDS011;69628;47.516;18.828;2023-11-19T02:47:26;9.43;;;5.78;;
80313;SDS011;69628;47.516;18.828;2023-11-19T02:48:27;12.60;;;5.70;;
80313;SDS011;69628;47.516;18.828;2023-11-19T02:49:28;14.52;;;6.22;;
80313;SDS011;69628;47.516;18.828;2023-11-19T02:50:28;12.73;;;4.18;;
80313;SDS011;69628;47.516;18.828;2023-11-19T02:51:29;9.15;;;4.88;;
80313;SDS011;69628;47.516;18.828;2023-11-19T02:52:30;12.00;;;4.90;;
80313;SDS011;69628;47.516;18.828;2023-11-19T02:53:35;9.43;;;4.50;;
80313;SDS011;69628;47.516;18.828;2023-11-19T02:54:37;7.32;;;3.72;;
80313;SDS011;69628;47.516;18.828;2023-11-19T02:55:37;8.93;;;5.22;;
80313;SDS011;69628;47.516;18.828;2023-11-19T02:56:43;10.80;;;4.68;;
80313;SDS011;69628;47.516;18.828;2023-11-19T02:57:43;9.52;;;5.80;;
80313;SDS011;69628;47.516;18.828;2023-11-19T02:58:50;8.45;;;4.05;;
80313;SDS011;69628;47.516;18.828;2023-11-19T02:59:51;7.88;;;4.25;;
80313;SDS011;69628;47.516;18.828;2023-11-19T03:00:51;15.20;;;4.47;;
80313;SDS011;69628;47.516;18.828;2023-11-19T03:01:57;15.63;;;5.00;;
80313;SDS011;69628;47.516;18.828;2023-11-19T03:02:59;8.88;;;4.57;;
80313;SDS011;69628;47.516;18.828;2023-11-19T03:04:05;7.40;;;4.53;;
80313;SDS011;69628;47.516;18.828;2023-11-19T03:05:05;13.27;;;5.20;;
80313;SDS011;69628;47.516;18.828;2023-11-19T03:06:07;6.43;;;4.07;;
80313;SDS011;69628;47.516;18.828;2023-11-19T03:07:09;12.45;;;6.38;;
80313;SDS011;69628;47.516;18.828;2023-11-19T03:08:09;9.77;;;4.65;;
80313;SDS011;69628;47.516;18.828;2023-11-19T03:09:10;9.38;;;3.72;;
80313;SDS011;69628;47.516;18.828;2023-11-19T03:10:10;6.40;;;4.05;;
80313;SDS011;69628;47.516;18.828;2023-11-19T03:11:14;14.43;;;4.90;;
80313;SDS011;69628;47.516;18.828;2023-11-19T03:12:14;17.90;;;4.32;;
80313;SDS011;69628;47.516;18.828;2023-11-19T03:13:15;8.68;;;4.65;;
80313;SDS011;69628;47.516;18.828;2023-11-19T03:14:16;11.27;;;5.28;;
80313;SDS011;69628;47.516;18.828;2023-11-19T03:15:18;9.43;;;4.47;;
80313;SDS011;69628;47.516;18.828;2023-11-19T03:16:18;10.23;;;5.10;;
80313;SDS011;69628;47.516;18.828;2023-11-19T03:17:19;6.97;;;3.30;;
80313;SDS011;69628;47.516;18.828;2023-11-19T03:18:19;7.45;;;3.95;;
80313;SDS011;69628;47.516;18.828;2023-11-19T03:19:20;9.45;;;4.55;;
80313;SDS011;69628;47.516;18.828;2023-11-19T03:20:21;10.50;;;4.43;;
80313;SDS011;69628;47.516;18.828;2023-11-19T03:21:29;27.63;;;4.28;;
80313;SDS011;69628;47.516;18.828;2023-11-19T03:22:31;13.02;;;5.30;;
80313;SDS011;69628;47.516;18.828;2023-11-19T03:23:34;7.60;;;4.03;;
80313;SDS011;69628;47.516;18.828;2023-11-19T03:24:35;7.55;;;3.95;;
80313;SDS011;69628;47.516;18.828;2023-11-19T03:25:35;9.43;;;4.05;;
80313;SDS011;69628;47.516;18.828;2023-11-19T03:26:37;10.20;;;5.13;;
80313;SDS011;69628;47.516;18.828;2023-11-19T03:27:38;15.98;;;4.47;;
80313;SDS011;69628;47.516;18.828;2023-11-19T03:28:39;12.23;;;6.05;;
80313;SDS011;69628;47.516;18.828;2023-11-19T03:29:39;10.80;;;5.22;;
80313;SDS011;69628;47.516;18.828;2023-11-19T03:30:40;7.65;;;4.35;;
80313;SDS011;69628;47.516;18.828;2023-11-19T03:31:43;12.30;;;5.82;;
80313;SDS011;69628;47.516;18.828;2023-11-19T03:32:44;13.15;;;6.15;;
80313;SDS011;69628;47.516;18.828;2023-11-19T03:33:45;10.88;;;4.82;;
80313;SDS011;69628;47.516;18.828;2023-11-19T03:34:45;9.20;;;4.40;;
80313;SDS011;69628;47.516;18.828;2023-11-19T03:35:45;12.20;;;4.80;;
80313;SDS011;69628;47.516;18.828;2023-11-19T03:36:46;8.45;;;4.18;;
80313;SDS011;69628;47.516;18.828;2023-11-19T03:37:46;10.52;;;4.30;;
80313;SDS011;69628;47.516;18.828;2023-11-19T03:38:47;8.80;;;3.88;;
80313;SDS011;69628;47.516;18.828;2023-11-19T03:39:47;9.73;;;5.43;;
80313;SDS011;69628;47.516;18.828;2023-11-19T03:40:47;10.82;;;5.13;;
80313;SDS011;69628;47.516;18.828;2023-11-19T03:41:47;12.60;;;4.45;;
80313;SDS011;69628;47.516;18.828;2023-11-19T03:42:48;11.02;;;4.45;;
80313;SDS011;69628;47.516;18.828;2023-11-19T03:43:48;21.27;;;5.57;;
80313;SDS011;69628;47.516;18.828;2023-11-19T03:44:49;8.80;;;4.03;;
80313;SDS011;69628;47.516;18.828;2023-11-19T03:45:50;7.57;;;3.70;;
80313;SDS011;69628;47.516;18.828;2023-11-19T03:46:50;12.07;;;4.78;;
80313;SDS011;69628;47.516;18.828;2023-11-19T03:47:50;11.32;;;4.63;;
80313;SDS011;69628;47.516;18.828;2023-11-19T03:48:51;12.93;;;4.55;;
80313;SDS011;69628;47.516;18.828;2023-11-19T03:49:52;5.45;;;3.45;;
80313;SDS011;69628;47.516;18.828;2023-11-19T03:50:52;8.82;;;4.90;;
80313;SDS011;69628;47.516;18.828;2023-11-19T03:51:52;7.22;;;3.90;;
80313;SDS011;69628;47.516;18.828;2023-11-19T03:52:53;7.57;;;4.70;;
80313;SDS011;69628;47.516;18.828;2023-11-19T03:53:53;8.82;;;3.78;;
80313;SDS011;69628;47.516;18.828;2023-11-19T03:54:53;12.38;;;5.03;;
80313;SDS011;69628;47.516;18.828;2023-11-19T03:55:55;9.02;;;4.07;;
80313;SDS011;69628;47.516;18.828;2023-11-19T03:56:55;13.75;;;4.22;;
80313;SDS011;69628;47.516;18.828;2023-11-19T03:57:56;4.30;;;2.72;;
80313;SDS011;69628;47.516;18.828;2023-11-19T03:58:56;9.48;;;3.85;;
80313;SDS011;69628;47.516;18.828;2023-11-19T03:59:57;5.97;;;3.38;;
80313;SDS011;69628;47.516;18.828;2023-11-19T04:00:58;5.00;;;3.00;;
80313;SDS011;69628;47.516;18.828;2023-11-19T04:01:59;7.88;;;4.18;;
80313;SDS011;69628;47.516;18.828;2023-11-19T04:03:00;6.90;;;3.75;;
80313;SDS011;69628;47.516;18.828;2023-11-19T04:04:01;8.18;;;3.83;;
80313;SDS011;69628;47.516;18.828;2023-11-19T04:05:01;6.03;;;3.83;;
80313;SDS011;69628;47.516;18.828;2023-11-19T04:06:03;5.53;;;3.65;;
80313;SDS011;69628;47.516;18.828;2023-11-19T04:07:05;4.78;;;3.03;;
80313;SDS011;69628;47.516;18.828;2023-11-19T04:08:05;7.80;;;3.95;;
80313;SDS011;69628;47.516;18.828;2023-11-19T04:09:06;6.45;;;3.88;;
80313;SDS011;69628;47.516;18.828;2023-11-19T04:10:06;4.00;;;2.85;;
80313;SDS011;69628;47.516;18.828;2023-11-19T04:11:07;6.30;;;2.97;;
80313;SDS011;69628;47.516;18.828;2023-11-19T04:12:08;6.28;;;3.47;;
80313;SDS011;69628;47.516;18.828;2023-11-19T04:13:09;6.53;;;3.97;;
80313;SDS011;69628;47.516;18.828;2023-11-19T04:14:10;7.70;;;3.58;;
80313;SDS011;69628;47.516;18.828;2023-11-19T04:15:10;5.40;;;2.83;;
80313;SDS011;69628;47.516;18.828;2023-11-19T04:16:11;9.43;;;3.40;;
80313;SDS011;69628;47.516;18.828;2023-11-19T04:17:12;5.32;;;3.45;;
80313;SDS011;69628;47.516;18.828;2023-11-19T04:18:12;5.63;;;2.78;;
80313;SDS011;69628;47.516;18.828;2023-11-19T04:19:12;6.13;;;3.80;;
80313;SDS011;69628;47.516;18.828;2023-11-19T04:20:13;8.75;;;3.35;;
80313;SDS011;69628;47.516;18.828;2023-11-19T04:21:14;6.45;;;4.22;;
80313;SDS011;69628;47.516;18.828;2023-11-19T04:22:14;6.90;;;3.13;;
80313;SDS011;69628;47.516;18.828;2023-11-19T04:23:14;5.00;;;3.35;;
80313;SDS011;69628;47.516;18.828;2023-11-19T04:24:15;5.47;;;3.05;;
80313;SDS011;69628;47.516;18.828;2023-11-19T04:25:15;7.75;;;4.25;;
80313;SDS011;69628;47.516;18.828;2023-11-19T04:26:16;6.45;;;3.70;;
80313;SDS011;69628;47.516;18.828;2023-11-19T04:27:16;8.10;;;3.75;;
80313;SDS011;69628;47.516;18.828;2023-11-19T04:28:17;4.88;;;3.25;;
80313;SDS011;69628;47.516;18.828;2023-11-19T04:29:17;5.35;;;3.20;;
80313;SDS011;69628;47.516;18.828;2023-11-19T04:30:18;4.75;;;3.05;;
80313;SDS011;69628;47.516;18.828;2023-11-19T04:31:18;5.85;;;2.45;;
80313;SDS011;69628;47.516;18.828;2023-11-19T04:32:19;6.88;;;3.40;;
80313;SDS011;69628;47.516;18.828;2023-11-19T04:33:19;6.57;;;3.80;;
80313;SDS011;69628;47.516;18.828;2023-11-19T04:34:19;8.60;;;4.00;;
80313;SDS011;69628;47.516;18.828;2023-11-19T04:35:20;7.35;;;3.83;;
80313;SDS011;69628;47.516;18.828;2023-11-19T04:36:21;6.55;;;3.60;;
80313;SDS011;69628;47.516;18.828;2023-11-19T04:37:24;7.80;;;3.97;;
80313;SDS011;69628;47.516;18.828;2023-11-19T04:38:24;9.23;;;3.42;;
80313;SDS011;69628;47.516;18.828;2023-11-19T04:39:26;5.95;;;3.60;;
80313;SDS011;69628;47.516;18.828;2023-11-19T04:40:27;5.63;;;3.30;;
80313;SDS011;69628;47.516;18.828;2023-11-19T04:41:27;4.20;;;2.83;;
80313;SDS011;69628;47.516;18.828;2023-11-19T04:42:28;7.75;;;3.60;;
80313;SDS011;69628;47.516;18.828;2023-11-19T04:43:29;6.65;;;3.35;;
80313;SDS011;69628;47.516;18.828;2023-11-19T04:44:30;4.82;;;2.78;;
80313;SDS011;69628;47.516;18.828;2023-11-19T04:45:30;4.70;;;2.75;;
80313;SDS011;69628;47.516;18.828;2023-11-19T04:46:32;4.20;;;2.50;;
80313;SDS011;69628;47.516;18.828;2023-11-19T04:47:33;6.05;;;2.88;;
80313;SDS011;69628;47.516;18.828;2023-11-19T04:48:34;4.60;;;2.97;;
80313;SDS011;69628;47.516;18.828;2023-11-19T04:49:34;3.97;;;2.67;;
80313;SDS011;69628;47.516;18.828;2023-11-19T04:50:35;6.28;;;3.33;;
80313;SDS011;69628;47.516;18.828;2023-11-19T04:51:44;5.45;;;2.88;;
80313;SDS011;69628;47.516;18.828;2023-11-19T04:52:47;6.32;;;2.75;;
80313;SDS011;69628;47.516;18.828;2023-11-19T04:53:47;5.32;;;3.05;;
80313;SDS011;69628;47.516;18.828;2023-11-19T04:54:47;6.75;;;3.88;;
80313;SDS011;69628;47.516;18.828;2023-11-19T04:55:48;7.25;;;3.22;;
80313;SDS011;69628;47.516;18.828;2023-11-19T04:56:48;5.43;;;2.78;;
80313;SDS011;69628;47.516;18.828;2023-11-19T04:57:49;4.85;;;2.97;;
80313;SDS011;69628;47.516;18.828;2023-11-19T04:58:49;4.88;;;3.00;;
80313;SDS011;69628;47.516;18.828;2023-11-19T04:59:49;7.90;;;3.38;;
80313;SDS011;69628;47.516;18.828;2023-11-19T05:00:50;8.75;;;3.45;;
80313;SDS011;69628;47.516;18.828;2023-11-19T05:01:50;8.63;;;3.80;;
80313;SDS011;69628;47.516;18.828;2023-11-19T05:02:51;10.05;;;3.55;;
80313;SDS011;69628;47.516;18.828;2023-11-19T05:03:51;7.60;;;4.10;;
80313;SDS011;69628;47.516;18.828;2023-11-19T05:04:52;5.18;;;3.53;;
80313;SDS011;69628;47.516;18.828;2023-11-19T05:05:52;8.48;;;4.05;;
80313;SDS011;69628;47.516;18.828;2023-11-19T05:06:53;8.77;;;3.05;;
80313;SDS011;69628;47.516;18.828;2023-11-19T05:07:53;7.03;;;4.07;;
80313;SDS011;69628;47.516;18.828;2023-11-19T05:08:55;7.22;;;4.57;;
80313;SDS011;69628;47.516;18.828;2023-11-19T05:09:56;13.80;;;5.20;;
80313;SDS011;69628;47.516;18.828;2023-11-19T05:10:57;7.78;;;3.65;;
80313;SDS011;69628;47.516;18.828;2023-11-19T05:11:57;7.43;;;4.75;;
80313;SDS011;69628;47.516;18.828;2023-11-19T05:12:58;10.02;;;4.32;;
80313;SDS011;69628;47.516;18.828;2023-11-19T05:13:58;7.95;;;4.22;;
80313;SDS011;69628;47.516;18.828;2023-11-19T05:14:58;10.48;;;5.43;;
80313;SDS011;69628;47.516;18.828;2023-11-19T05:15:59;13.20;;;5.50;;
80313;SDS011;69628;47.516;18.828;2023-11-19T05:16:59;12.95;;;6.40;;
80313;SDS011;69628;47.516;18.828;2023-11-19T05:17:59;11.00;;;3.90;;
80313;SDS011;69628;47.516;18.828;2023-11-19T05:19:00;10.57;;;5.05;;
80313;SDS011;69628;47.516;18.828;2023-11-19T05:20:00;9.85;;;5.05;;
80313;SDS011;69628;47.516;18.828;2023-11-19T05:21:01;12.60;;;6.30;;
80313;SDS011;69628;47.516;18.828;2023-11-19T05:22:01;9.50;;;4.65;;
80313;SDS011;69628;47.516;18.828;2023-11-19T05:23:02;13.77;;;5.32;;
80313;SDS011;69628;47.516;18.828;2023-11-19T05:24:02;11.43;;;6.13;;
80313;SDS011;69628;47.516;18.828;2023-11-19T05:25:06;10.07;;;5.15;;
80313;SDS011;69628;47.516;18.828;2023-11-19T05:26:07;13.63;;;4.72;;
80313;SDS011;69628;47.516;18.828;2023-11-19T05:27:07;9.82;;;5.32;;
80313;SDS011;69628;47.516;18.828;2023-11-19T05:28:08;12.73;;;4.85;;
80313;SDS011;69628;47.516;18.828;2023-11-19T05:29:08;11.32;;;5.43;;
80313;SDS011;69628;47.516;18.828;2023-11-19T05:30:09;9.30;;;5.82;;
80313;SDS011;69628;47.516;18.828;2023-11-19T05:31:12;9.05;;;4.72;;
80313;SDS011;69628;47.516;18.828;2023-11-19T05:32:13;11.52;;;5.28;;
80313;SDS011;69628;47.516;18.828;2023-11-19T05:33:13;6.82;;;4.68;;
80313;SDS011;69628;47.516;18.828;2023-11-19T05:34:13;11.10;;;4.70;;
80313;SDS011;69628;47.516;18.828;2023-11-19T05:35:15;27.35;;;5.78;;
80313;SDS011;69628;47.516;18.828;2023-11-19T05:36:15;9.88;;;4.47;;
80313;SDS011;69628;47.516;18.828;2023-11-19T05:37:15;10.45;;;5.32;;
80313;SDS011;69628;47.516;18.828;2023-11-19T05:38:16;10.20;;;5.47;;
80313;SDS011;69628;47.516;18.828;2023-11-19T05:39:16;10.60;;;4.90;;
80313;SDS011;69628;47.516;18.828;2023-11-19T05:40:18;18.45;;;5.60;;
80313;SDS011;69628;47.516;18.828;2023-11-19T05:41:20;11.93;;;5.32;;
80313;SDS011;69628;47.516;18.828;2023-11-19T05:42:20;7.10;;;4.03;;
80313;SDS011;69628;47.516;18.828;2023-11-19T05:43:21;7.07;;;4.32;;
80313;SDS011;69628;47.516;18.828;2023-11-19T05:44:22;6.25;;;4.05;;
80313;SDS011;69628;47.516;18.828;2023-11-19T05:45:22;17.67;;;5.60;;
80313;SDS011;69628;47.516;18.828;2023-11-19T05:46:23;11.27;;;6.85;;
80313;SDS011;69628;47.516;18.828;2023-11-19T05:47:25;17.13;;;5.57;;
80313;SDS011;69628;47.516;18.828;2023-11-19T05:48:26;12.18;;;5.57;;
80313;SDS011;69628;47.516;18.828;2023-11-19T05:49:26;17.75;;;5.97;;
80313;SDS011;69628;47.516;18.828;2023-11-19T05:50:26;10.50;;;4.78;;
80313;SDS011;69628;47.516;18.828;2023-11-19T05:51:27;11.52;;;6.00;;
80313;SDS011;69628;47.516;18.828;2023-11-19T05:52:27;10.27;;;4.93;;
80313;SDS011;69628;47.516;18.828;2023-11-19T05:53:33;16.23;;;7.03;;
80313;SDS011;69628;47.516;18.828;2023-11-19T05:54:34;13.18;;;6.82;;
80313;SDS011;69628;47.516;18.828;2023-11-19T05:55:37;11.15;;;6.00;;
80313;SDS011;69628;47.516;18.828;2023-11-19T05:56:47;11.02;;;5.13;;
80313;SDS011;69628;47.516;18.828;2023-11-19T05:57:49;12.52;;;5.65;;
80313;SDS011;69628;47.516;18.828;2023-11-19T05:58:51;13.65;;;5.63;;
80313;SDS011;69628;47.516;18.828;2023-11-19T05:59:52;12.38;;;6.18;;
80313;SDS011;69628;47.516;18.828;2023-11-19T06:00:54;12.13;;;6.00;;
80313;SDS011;69628;47.516;18.828;2023-11-19T06:01:57;18.60;;;5.60;;
80313;SDS011;69628;47.516;18.828;2023-11-19T06:02:57;9.43;;;5.05;;